createdAt,value
2023-04-14T00:00:17.190Z,26.81
2023-04-14T00:02:50.597Z,26.89
2023-04-14T00:05:22.937Z,26.88
2023-04-14T00:07:54.910Z,27.03
2023-04-14T00:10:29.560Z,26.84
2023-04-14T00:13:04.493Z,26.85
2023-04-14T00:15:37.398Z,26.88
2023-04-14T00:18:11.203Z,26.87
2023-04-14T00:20:44.607Z,26.89
2023-04-14T00:23:17.598Z,26.89
2023-04-14T00:25:52.936Z,26.91
2023-04-14T00:28:25.800Z,26.83
2023-04-14T00:30:58.208Z,26.79
2023-04-14T00:33:30.381Z,26.75
2023-04-14T00:36:02.349Z,26.71
2023-04-14T00:38:35.139Z,26.70
2023-04-14T00:41:07.291Z,26.75
2023-04-14T00:43:41.783Z,26.77
2023-04-14T00:46:15.568Z,26.88
2023-04-14T00:48:49.392Z,26.89
2023-04-14T00:51:21.751Z,26.94
2023-04-14T00:53:57.470Z,27.01
2023-04-14T00:56:30.584Z,26.92
2023-04-14T00:59:05.361Z,27.02
2023-04-14T01:01:40.131Z,26.96
2023-04-14T01:04:14.712Z,26.93
2023-04-14T01:06:47.662Z,27.02
2023-04-14T01:09:20.986Z,27.09
2023-04-14T01:11:58.175Z,27.19
2023-04-14T01:14:52.573Z,27.30
2023-04-14T01:17:37.147Z,27.33
2023-04-14T01:20:16.949Z,27.40
2023-04-14T01:23:25.893Z,27.48
2023-04-14T01:26:13.800Z,27.49
2023-04-14T01:28:49.336Z,27.51
2023-04-14T01:31:23.154Z,27.50
2023-04-14T01:34:17.190Z,27.55
2023-04-14T01:37:04.599Z,27.48
2023-04-14T01:39:45.189Z,27.48
2023-04-14T01:42:23.945Z,27.59
2023-04-14T01:45:00.408Z,27.56
2023-04-14T01:47:33.613Z,27.62
2023-04-14T01:50:08.314Z,27.64
2023-04-14T01:52:43.897Z,27.71
2023-04-14T01:55:19.209Z,27.80
2023-04-14T01:57:54.567Z,27.91
2023-04-14T02:00:28.886Z,27.89
2023-04-14T02:03:09.479Z,28.05
2023-04-14T02:05:44.237Z,28.15
2023-04-14T02:08:19.578Z,28.23
2023-04-14T02:10:55.366Z,28.31
2023-04-14T02:13:31.647Z,28.30
2023-04-14T02:16:05.480Z,28.39
2023-04-14T02:18:38.745Z,28.48
2023-04-14T02:21:13.281Z,28.60
2023-04-14T02:23:46.998Z,28.65
2023-04-14T02:26:27.792Z,28.76
2023-04-14T02:29:16.071Z,28.98
2023-04-14T02:31:55.563Z,29.05
2023-04-14T02:34:36.190Z,29.13
2023-04-14T02:37:17.134Z,29.28
2023-04-14T02:40:03.357Z,29.42
2023-04-14T02:42:41.030Z,29.49
2023-04-14T02:45:30.091Z,29.65
2023-04-14T02:48:10.410Z,29.76
2023-04-14T02:50:49.254Z,29.90
2023-04-14T02:53:28.933Z,29.97
2023-04-14T02:56:11.731Z,30.08
2023-04-14T02:58:49.988Z,30.18
2023-04-14T03:01:21.489Z,30.26
2023-04-14T03:03:55.586Z,30.38
2023-04-14T03:06:27.432Z,30.50
2023-04-14T03:09:01.476Z,30.59
2023-04-14T03:11:34.570Z,30.65
2023-04-14T03:14:05.710Z,30.72
2023-04-14T03:16:40.636Z,30.89
2023-04-14T03:19:13.592Z,30.99
2023-04-14T03:21:48.421Z,31.11
2023-04-14T03:24:25.568Z,31.26
2023-04-14T03:27:01.107Z,31.28
2023-04-14T03:29:39.667Z,31.37
2023-04-14T03:32:10.717Z,31.55
2023-04-14T03:34:44.625Z,31.67
2023-04-14T03:37:19.132Z,31.69
2023-04-14T03:39:52.324Z,31.76
2023-04-14T03:42:22.991Z,31.88
2023-04-14T03:44:55.468Z,31.99
2023-04-14T03:47:25.992Z,32.18
2023-04-14T03:49:58.654Z,32.28
2023-04-14T03:52:32.857Z,32.28
2023-04-14T03:55:07.944Z,32.51
2023-04-14T03:57:41.304Z,32.66
2023-04-14T04:00:14.331Z,32.80
2023-04-14T04:02:45.884Z,32.89
2023-04-14T04:05:16.343Z,32.95
2023-04-14T04:07:47.721Z,32.90
2023-04-14T04:10:18.468Z,33.12
2023-04-14T04:12:51.196Z,33.28
2023-04-14T04:15:21.047Z,33.32
2023-04-14T04:17:52.990Z,33.43
2023-04-14T04:20:23.672Z,33.53
2023-04-14T04:22:57.059Z,33.65
2023-04-14T04:25:26.722Z,33.74
2023-04-14T04:28:06.117Z,33.90
2023-04-14T04:30:42.042Z,34.04
2023-04-14T04:33:13.073Z,34.10
2023-04-14T04:35:43.832Z,34.12
2023-04-14T04:38:13.593Z,34.25
2023-04-14T04:40:46.373Z,34.35
2023-04-14T04:43:24.499Z,34.60
2023-04-14T04:46:16.481Z,34.78
2023-04-14T04:48:47.033Z,34.78
2023-04-14T04:51:16.591Z,34.83
2023-04-14T04:53:46.158Z,34.69
2023-04-14T04:56:15.846Z,34.96
2023-04-14T04:58:45.270Z,35.03
2023-04-14T05:01:16.240Z,35.27
2023-04-14T05:03:47.257Z,35.40
2023-04-14T05:06:17.923Z,35.44
2023-04-14T05:08:47.469Z,35.58
2023-04-14T05:11:17.021Z,35.55
2023-04-14T05:13:46.665Z,35.87
2023-04-14T05:16:16.895Z,35.96
2023-04-14T05:18:46.473Z,35.91
2023-04-14T05:21:16.940Z,35.92
2023-04-14T05:23:47.951Z,36.10
2023-04-14T05:28:51.034Z,36.42
2023-04-14T05:31:21.948Z,36.47
2023-04-14T05:33:51.825Z,36.60
2023-04-14T05:36:21.841Z,36.69
2023-04-14T05:38:51.158Z,36.77
2023-04-14T05:41:23.230Z,36.87
2023-04-14T05:43:52.723Z,37.03
2023-04-14T05:46:22.200Z,37.12
2023-04-14T05:48:51.683Z,37.24
2023-04-14T05:52:10.260Z,37.33
2023-04-14T05:54:41.312Z,37.47
2023-04-14T05:57:12.293Z,37.45
2023-04-14T05:59:41.478Z,37.40
2023-04-14T06:02:11.251Z,37.59
2023-04-14T06:04:40.485Z,37.58
2023-04-14T06:07:09.994Z,37.63
2023-04-14T06:09:39.555Z,37.58
2023-04-14T06:12:08.600Z,37.67
2023-04-14T06:14:38.306Z,37.80
2023-04-14T06:17:08.452Z,37.86
2023-04-14T06:19:38.795Z,37.94
2023-04-14T06:22:09.476Z,37.94
2023-04-14T06:24:38.983Z,38.07
2023-04-14T06:27:08.952Z,38.03
2023-04-14T06:29:38.431Z,38.00
2023-04-14T06:32:11.617Z,38.08
2023-04-14T06:34:41.548Z,38.06
2023-04-14T06:37:11.463Z,37.96
2023-04-14T06:39:40.844Z,38.19
2023-04-14T06:42:15.356Z,38.32
2023-04-14T06:44:55.301Z,38.52
2023-04-14T06:47:31.626Z,38.55
2023-04-14T06:50:02.371Z,38.56
2023-04-14T06:52:33.074Z,38.72
2023-04-14T06:55:05.228Z,38.44
2023-04-14T06:57:44.437Z,38.78
2023-04-14T07:00:29.776Z,38.51
2023-04-14T07:03:15.109Z,38.72
2023-04-14T07:06:01.021Z,38.79
2023-04-14T07:08:36.268Z,38.71
2023-04-14T07:11:09.494Z,38.72
2023-04-14T07:13:40.825Z,38.77
2023-04-14T07:16:10.765Z,38.88
2023-04-14T07:18:40.118Z,38.73
2023-04-14T07:21:09.324Z,38.88
2023-04-14T07:23:39.050Z,39.13
2023-04-14T07:26:08.447Z,39.12
2023-04-14T07:28:38.596Z,39.02
2023-04-14T07:31:12.523Z,39.14
2023-04-14T07:33:42.105Z,39.13
2023-04-14T07:36:11.914Z,39.01
2023-04-14T07:38:41.861Z,39.15
2023-04-14T07:41:11.477Z,39.26
2023-04-14T07:43:41.674Z,39.29
2023-04-14T07:46:10.891Z,39.34
2023-04-14T07:48:47.877Z,39.42
2023-04-14T07:51:18.609Z,39.35
2023-04-14T07:53:48.333Z,39.20
2023-04-14T07:56:17.816Z,39.21
2023-04-14T07:58:47.533Z,39.44
2023-04-14T08:01:21.402Z,39.69
2023-04-14T08:03:51.961Z,39.43
2023-04-14T08:06:22.329Z,39.40
2023-04-14T08:08:53.141Z,39.57
2023-04-14T08:11:23.083Z,39.60
2023-04-14T08:13:53.947Z,39.60
2023-04-14T08:16:24.088Z,39.81
2023-04-14T08:18:55.833Z,39.80
2023-04-14T08:21:29.121Z,39.61
2023-04-14T08:23:58.573Z,39.84
2023-04-14T08:26:30.854Z,39.62
2023-04-14T08:29:00.497Z,39.82
2023-04-14T08:31:30.375Z,39.74
2023-04-14T08:33:59.399Z,39.89
2023-04-14T08:36:29.621Z,39.95
2023-04-14T08:39:01.409Z,40.09
2023-04-14T08:41:35.809Z,40.04
2023-04-14T08:44:05.064Z,39.90
2023-04-14T08:46:36.033Z,39.89
2023-04-14T08:49:08.089Z,40.02
2023-04-14T08:51:44.196Z,40.15
2023-04-14T08:54:14.463Z,40.10
2023-04-14T08:56:44.972Z,40.19
2023-04-14T08:59:14.449Z,40.18
2023-04-14T09:01:44.007Z,40.20
2023-04-14T09:04:15.603Z,40.31
2023-04-14T09:06:45.032Z,40.21
2023-04-14T09:09:15.271Z,40.21
2023-04-14T09:11:46.254Z,40.26
2023-04-14T09:14:16.884Z,40.31
2023-04-14T09:16:49.784Z,40.07
2023-04-14T09:19:19.417Z,39.93
2023-04-14T09:21:51.917Z,40.11
2023-04-14T09:24:32.417Z,40.09
2023-04-14T09:30:05.229Z,39.99
2023-04-14T09:32:35.101Z,39.86
2023-04-14T09:35:04.345Z,39.82
2023-04-14T09:37:47.584Z,39.77
2023-04-14T09:40:30.241Z,39.95
2023-04-14T09:43:00.126Z,39.79
2023-04-14T09:45:46.194Z,39.77
2023-04-14T09:48:15.867Z,39.74
2023-04-14T09:51:07.657Z,39.78
2023-04-14T09:53:42.367Z,39.77
2023-04-14T09:56:13.580Z,39.66
2023-04-14T09:58:45.782Z,39.35
2023-04-14T10:01:17.833Z,39.54
2023-04-14T10:03:51.229Z,39.62
2023-04-14T10:06:24.718Z,39.52
2023-04-14T10:08:57.015Z,39.49
2023-04-14T10:11:28.596Z,39.43
2023-04-14T10:14:00.393Z,39.48
2023-04-14T10:16:30.456Z,39.37
2023-04-14T10:19:00.480Z,39.29
2023-04-14T10:21:30.548Z,39.37
2023-04-14T10:24:00.007Z,39.54
2023-04-14T10:26:31.150Z,39.40
2023-04-14T10:29:03.345Z,39.36
2023-04-14T10:31:39.916Z,39.41
2023-04-14T10:34:10.338Z,39.38
2023-04-14T10:36:40.084Z,39.25
2023-04-14T10:39:11.131Z,39.31
2023-04-14T10:41:50.919Z,39.33
2023-04-14T10:44:33.785Z,39.30
2023-04-14T10:47:06.072Z,39.21
2023-04-14T10:49:37.917Z,39.29
2023-04-14T10:52:08.746Z,39.31
2023-04-14T10:55:01.873Z,39.07
2023-04-14T10:57:32.013Z,39.10
2023-04-14T11:00:01.667Z,39.14
2023-04-14T11:02:32.099Z,39.14
2023-04-14T11:05:09.677Z,39.17
2023-04-14T11:07:52.794Z,39.23
2023-04-14T11:10:22.332Z,39.15
2023-04-14T11:13:02.653Z,39.22
2023-04-14T11:15:49.146Z,39.20
2023-04-14T11:18:35.670Z,39.04
2023-04-14T11:21:08.868Z,39.10
2023-04-14T11:23:39.635Z,39.03
2023-04-14T11:26:11.173Z,39.20
2023-04-14T11:28:43.649Z,39.04
2023-04-14T11:31:16.097Z,39.26
2023-04-14T11:33:46.134Z,39.15
2023-04-14T11:36:15.327Z,39.21
2023-04-14T11:38:44.818Z,39.14
2023-04-14T11:41:16.914Z,39.32
2023-04-14T11:43:47.871Z,39.22
2023-04-14T11:46:17.434Z,39.14
2023-04-14T11:48:46.741Z,39.10
2023-04-14T11:51:16.350Z,39.02
2023-04-14T11:53:45.405Z,38.97
2023-04-14T11:56:15.941Z,38.88
2023-04-14T11:58:45.233Z,38.81
2023-04-14T12:01:15.814Z,38.87
2023-04-14T12:03:45.486Z,38.86
2023-04-14T12:06:14.681Z,38.71
2023-04-14T12:08:44.762Z,38.66
2023-04-14T12:11:17.539Z,38.72
2023-04-14T12:13:48.612Z,38.58
2023-04-14T12:16:18.651Z,38.49
2023-04-14T12:18:48.090Z,38.45
2023-04-14T12:21:21.093Z,38.30
2023-04-14T12:23:50.974Z,38.32
2023-04-14T12:26:21.775Z,38.27
2023-04-14T12:28:59.019Z,38.25
2023-04-14T12:31:31.422Z,38.15
2023-04-14T12:34:04.451Z,38.05
2023-04-14T12:36:48.785Z,37.87
2023-04-14T12:39:20.689Z,37.80
2023-04-14T12:41:50.593Z,37.71
2023-04-14T12:44:21.552Z,37.58
2023-04-14T12:46:52.820Z,37.47
2023-04-14T12:49:39.333Z,37.43
2023-04-14T12:52:09.323Z,37.20
2023-04-14T12:54:54.608Z,37.22
2023-04-14T12:57:23.982Z,37.08
2023-04-14T12:59:53.332Z,37.00
2023-04-14T13:02:23.680Z,36.93
2023-04-14T13:04:52.886Z,36.91
2023-04-14T13:07:22.644Z,36.83
2023-04-14T13:09:53.350Z,36.79
2023-04-14T13:12:23.203Z,36.75
2023-04-14T13:14:54.197Z,36.64
2023-04-14T13:17:23.535Z,36.55
2023-04-14T13:19:54.023Z,36.46
2023-04-14T13:22:23.083Z,36.40
2023-04-14T13:24:52.622Z,36.29
2023-04-14T13:27:21.816Z,36.23
2023-04-14T13:29:51.057Z,36.16
2023-04-14T13:32:20.289Z,36.11
2023-04-14T13:34:50.744Z,36.04
2023-04-14T13:37:20.664Z,35.96
2023-04-14T13:39:49.713Z,35.85
2023-04-14T13:42:19.437Z,35.77
2023-04-14T13:44:49.204Z,35.71
2023-04-14T13:47:20.062Z,35.62
2023-04-14T13:49:49.251Z,35.53
2023-04-14T13:52:18.427Z,35.45
2023-04-14T13:54:47.708Z,35.38
2023-04-14T13:57:17.324Z,35.30
2023-04-14T13:59:46.436Z,35.22
2023-04-14T14:02:15.583Z,35.12
2023-04-14T14:04:45.153Z,35.06
2023-04-14T14:07:14.366Z,34.96
2023-04-14T14:09:45.493Z,34.86
2023-04-14T14:12:14.573Z,34.80
2023-04-14T14:14:43.652Z,34.75
2023-04-14T14:17:13.280Z,34.69
2023-04-14T14:19:42.377Z,34.63
2023-04-14T14:22:11.706Z,34.54
2023-04-14T14:24:42.176Z,34.52
2023-04-14T14:27:11.515Z,34.42
2023-04-14T14:29:40.609Z,34.35
2023-04-14T14:32:10.101Z,34.28
2023-04-14T14:34:40.038Z,34.24
2023-04-14T14:37:09.456Z,34.16
2023-04-14T14:39:38.404Z,34.07
2023-04-14T14:42:08.466Z,34.02
2023-04-14T14:44:39.745Z,33.96
2023-04-14T14:47:09.323Z,33.89
2023-04-14T14:49:41.354Z,33.82
2023-04-14T14:52:18.546Z,33.83
2023-04-14T14:54:47.267Z,33.77
2023-04-14T14:57:16.352Z,33.70
2023-04-14T14:59:45.623Z,33.64
2023-04-14T15:02:14.882Z,33.57
2023-04-14T15:04:44.092Z,33.52
2023-04-14T15:07:14.202Z,33.47
2023-04-14T15:09:43.304Z,33.37
2023-04-14T15:12:12.475Z,33.33
2023-04-14T15:14:41.615Z,33.31
2023-04-14T15:17:10.979Z,33.24
2023-04-14T15:19:41.431Z,33.19
2023-04-14T15:22:11.308Z,33.14
2023-04-14T15:24:40.363Z,33.08
2023-04-14T15:27:09.655Z,33.05
2023-04-14T15:29:38.862Z,33.00
2023-04-14T15:32:08.436Z,32.97
2023-04-14T15:34:37.538Z,32.87
2023-04-14T15:37:07.038Z,32.88
2023-04-14T15:39:38.295Z,32.89
2023-04-14T15:42:07.353Z,32.84
2023-04-14T15:44:36.370Z,32.76
2023-04-14T15:47:06.301Z,32.73
2023-04-14T15:49:35.507Z,32.78
2023-04-14T15:52:04.503Z,32.74
2023-04-14T15:54:35.205Z,32.71
2023-04-14T15:57:05.212Z,32.62
2023-04-14T15:59:34.371Z,32.61
2023-04-14T16:02:04.471Z,32.60
2023-04-14T16:04:33.570Z,32.55
2023-04-14T16:07:03.619Z,32.53
2023-04-14T16:09:33.247Z,32.48
2023-04-14T16:12:02.369Z,32.44
2023-04-14T16:14:36.222Z,32.48
2023-04-14T16:17:05.283Z,32.32
2023-04-14T16:19:34.338Z,32.28
2023-04-14T16:22:03.950Z,32.22
2023-04-14T16:24:33.108Z,32.22
2023-04-14T16:27:02.468Z,32.20
2023-04-14T16:29:32.400Z,32.16
2023-04-14T16:32:01.298Z,32.12
2023-04-14T16:34:30.526Z,32.09
2023-04-14T16:36:59.796Z,32.04
2023-04-14T16:39:29.882Z,32.03
2023-04-14T16:41:59.716Z,31.95
2023-04-14T16:44:28.582Z,31.89
2023-04-14T16:46:57.877Z,31.84
2023-04-14T16:49:27.118Z,31.80
2023-04-14T16:51:58.734Z,31.76
2023-04-14T16:54:29.885Z,31.73
2023-04-14T16:56:59.502Z,31.64
2023-04-14T16:59:28.480Z,31.65
2023-04-14T17:01:57.868Z,31.64
2023-04-14T17:04:27.849Z,31.60
2023-04-14T17:06:57.698Z,31.54
2023-04-14T17:09:26.749Z,31.50
2023-04-14T17:11:57.807Z,31.46
2023-04-14T17:14:27.134Z,31.46
2023-04-14T17:16:56.230Z,31.41
2023-04-14T17:19:26.114Z,31.29
2023-04-14T17:21:55.105Z,31.27
2023-04-14T17:24:24.273Z,31.22
2023-04-14T17:26:53.530Z,31.12
2023-04-14T17:29:22.802Z,31.15
2023-04-14T17:31:51.911Z,31.08
2023-04-14T17:34:21.850Z,31.04
2023-04-14T17:36:51.867Z,30.99
2023-04-14T17:39:27.528Z,30.97
2023-04-14T17:41:58.277Z,30.89
2023-04-14T17:44:37.390Z,30.93
2023-04-14T17:47:13.867Z,30.82
2023-04-14T17:49:46.038Z,30.89
2023-04-14T17:52:22.890Z,30.77
2023-04-14T17:54:52.892Z,30.67
2023-04-14T17:57:22.081Z,30.62
2023-04-14T17:59:50.963Z,30.61
2023-04-14T18:02:20.825Z,30.57
2023-04-14T18:04:49.813Z,30.53
2023-04-14T18:07:19.835Z,30.56
2023-04-14T18:09:49.237Z,30.53
2023-04-14T18:12:18.095Z,30.47
2023-04-14T18:14:47.545Z,30.44
2023-04-14T18:17:17.028Z,30.40
2023-04-14T18:19:46.716Z,30.41
2023-04-14T18:22:16.108Z,30.36
2023-04-14T18:29:50.517Z,30.34
2023-04-14T18:32:19.834Z,30.26
2023-04-14T18:34:49.098Z,30.23
2023-04-14T18:37:18.239Z,30.21
2023-04-14T18:39:47.561Z,30.18
2023-04-14T18:42:16.616Z,30.20
2023-04-14T18:44:45.907Z,30.15
2023-04-14T18:47:15.164Z,30.18
2023-04-14T18:49:44.539Z,30.11
2023-04-14T18:52:14.019Z,30.05
2023-04-14T18:54:42.907Z,30.01
2023-04-14T18:57:12.676Z,29.97
2023-04-14T18:59:41.969Z,30.00
2023-04-14T19:02:14.335Z,29.94
2023-04-14T19:04:43.847Z,29.91
2023-04-14T19:07:13.001Z,29.92
2023-04-14T19:09:42.859Z,29.91
2023-04-14T19:12:21.734Z,29.91
2023-04-14T19:14:56.734Z,29.91
2023-04-14T19:17:25.843Z,29.89
2023-04-14T19:19:54.779Z,29.77
2023-04-14T19:22:24.091Z,29.76
2023-04-14T19:24:53.432Z,29.68
2023-04-14T19:27:22.563Z,29.61
2023-04-14T19:29:51.859Z,29.63
2023-04-14T19:32:21.283Z,29.65
2023-04-14T19:34:50.486Z,29.60
2023-04-14T19:37:19.641Z,29.59
2023-04-14T19:39:48.676Z,29.62
2023-04-14T19:42:18.188Z,29.58
2023-04-14T19:44:47.710Z,29.53
2023-04-14T19:47:16.700Z,29.54
2023-04-14T19:49:46.092Z,29.53
2023-04-14T19:52:15.174Z,29.47
2023-04-14T19:54:44.497Z,29.43
2023-04-14T19:57:13.637Z,29.40
2023-04-14T19:59:43.706Z,29.32
2023-04-14T20:02:14.483Z,29.30
2023-04-14T20:04:46.790Z,29.27
2023-04-14T20:07:18.104Z,29.18
2023-04-14T20:09:48.498Z,29.20
2023-04-14T20:12:19.284Z,29.25
2023-04-14T20:14:49.785Z,29.17
2023-04-14T20:17:22.845Z,29.29
2023-04-14T20:19:54.037Z,29.24
2023-04-14T20:22:25.264Z,29.20
2023-04-14T20:24:56.326Z,29.21
2023-04-14T20:27:27.013Z,29.23
2023-04-14T20:29:57.282Z,29.20
2023-04-14T20:32:30.458Z,29.21
2023-04-14T20:35:03.417Z,29.16
2023-04-14T20:37:35.929Z,29.17
2023-04-14T20:40:10.179Z,29.16
2023-04-14T20:42:42.682Z,29.12
2023-04-14T20:45:14.045Z,29.24
2023-04-14T20:47:46.508Z,29.04
2023-04-14T20:50:19.698Z,29.01
2023-04-14T20:52:52.998Z,29.00
2023-04-14T20:55:25.584Z,29.00
2023-04-14T20:57:57.387Z,28.94
2023-04-14T21:00:29.312Z,28.92
2023-04-14T21:03:03.819Z,28.93
2023-04-14T21:05:36.878Z,28.93
2023-04-14T21:08:10.137Z,28.83
2023-04-14T21:11:15.241Z,28.83
2023-04-14T21:15:29.116Z,28.78
2023-04-14T21:16:28.841Z,28.72
2023-04-14T21:19:00.622Z,28.84
2023-04-14T21:21:35.399Z,28.64
2023-04-14T21:24:07.492Z,28.64
2023-04-14T21:26:39.458Z,28.64
2023-04-14T21:29:13.456Z,28.61
2023-04-14T21:31:45.313Z,28.53
2023-04-14T21:34:19.449Z,28.57
2023-04-14T21:36:51.820Z,28.51
2023-04-14T21:39:24.136Z,28.63
2023-04-14T21:41:56.488Z,28.42
2023-04-14T21:44:27.967Z,28.38
2023-04-14T21:47:01.380Z,28.41
2023-04-14T21:49:33.842Z,28.36
2023-04-14T21:52:05.064Z,28.29
2023-04-14T21:54:37.460Z,28.25
2023-04-14T21:57:11.755Z,28.27
2023-04-14T21:59:44.138Z,28.19
2023-04-14T22:02:16.716Z,28.16
2023-04-14T22:04:48.807Z,28.18
2023-04-14T22:07:20.825Z,28.16
2023-04-14T22:09:53.182Z,28.24
2023-04-14T22:12:25.338Z,28.30
2023-04-14T22:14:57.808Z,28.50
2023-04-14T22:17:30.915Z,28.32
2023-04-14T22:20:02.662Z,28.31
2023-04-14T22:22:33.581Z,28.19
2023-04-14T22:25:07.781Z,28.18
2023-04-14T22:27:40.349Z,28.16
2023-04-14T22:30:12.630Z,28.12
2023-04-14T22:32:44.708Z,28.17
2023-04-14T22:35:19.155Z,28.18
2023-04-14T22:37:51.426Z,28.13
2023-04-14T22:40:23.722Z,28.03
2023-04-14T22:42:57.189Z,28.05
2023-04-14T22:45:28.908Z,28.05
2023-04-14T22:48:00.858Z,28.00
2023-04-14T22:50:37.018Z,27.98
2023-04-14T22:53:09.677Z,28.02
2023-04-14T22:55:42.967Z,27.97
2023-04-14T22:58:19.487Z,28.01
2023-04-14T23:00:51.842Z,27.93
2023-04-14T23:03:25.152Z,27.89
2023-04-14T23:05:58.285Z,27.84
2023-04-14T23:08:30.867Z,27.86
2023-04-14T23:11:03.795Z,27.87
2023-04-14T23:13:38.196Z,27.91
2023-04-14T23:16:12.582Z,27.95
2023-04-14T23:18:45.453Z,27.94
2023-04-14T23:21:18.189Z,27.87
2023-04-14T23:23:51.338Z,27.96
2023-04-14T23:26:24.654Z,27.98
2023-04-14T23:28:56.728Z,27.95
2023-04-14T23:31:33.116Z,27.95
2023-04-14T23:34:04.476Z,27.95
2023-04-14T23:36:37.709Z,27.88
2023-04-14T23:39:10.223Z,27.76
2023-04-14T23:41:42.744Z,27.71
2023-04-14T23:44:13.622Z,27.80
2023-04-14T23:46:46.398Z,27.51
2023-04-14T23:49:23.873Z,27.43
2023-04-14T23:52:06.592Z,27.43
2023-04-14T23:54:39.870Z,27.47
2023-04-14T23:57:11.995Z,27.50
2023-04-14T23:59:44.108Z,27.56
